الصفحة الرئيسية
METAR-TAF:

METAR-TAF

مطار :

مطار هواري بومدين الدولي

الجزائر, الجزائر

دائرة عرض: 36-43N, خط طول: 003-15E, ارتفاع: 25 متر

مراقبة الطقس الحالي

تاريخ ووقت الإصدار 22 دقيقة قبل الساعة 03:00UTC
رياح هادئة
درجة الحرارة 18°درجة مئوية
الرطوبة 88%
ضغط 1020 hPa
الرؤية 10 كم أو أكثر
الغيوم لا تقل 1500 م ولا وجود لمزنة ركامية السحاب الأسود

METAR: DAAG 240300Z 00000KT CAVOK 18/16 Q1020

زمن: 04:22 (03:22 UTC)

توقعات

تاريخ ووقت الإصدار 4ساعات و 22 دقيقة قبل الساعة 23:00UTC
التوقعات صالحة من24 الساعة 00 UTC إلى 24 الساعة 24 UTC
ريح 2 عقدةمن اتجاهات متغيرة
الرؤية 10 كم أو أكثر
الغيوم لا تقل 1500 م ولا وجود لمزنة ركامية السحاب الأسود
أصبح
من 24 الساعة 09 UTC إلى 24 الساعة 12 UTC
ريح 12 عقدة من الشرق/الشمال الشرقي
نظرية الاحتمالات 30% :
مؤقت
من 24 الساعة 12 UTC إلى 24 الساعة 16 UTC
ريح 15 عقدة من الشرق/الشمال الشرقي تتزايد حتى 25 عقدة
أصبح
من 24 الساعة 18 UTC إلى 24 الساعة 21 UTC
ريح 2 عقدةمن اتجاهات متغيرة

TAF: DAAG 232300Z 2400/2424 VRB02KT CAVOK BECMG 2409/2412 06012KT PROB30 TEMPO 2412/2416 06015G25KT BECMG 2418/2421 VRB02KT

أرصاد الطقس والتوقعات من أكثر من 4000 مطار (تقارير الطقس للمطار METAR والتنبؤ بالطقس بالمطارTAF).

المحطات المتاحة هي النقط الصفراء والحمراء على الخريطة.

حرك المؤشر فوق النقطة لمعرفة اسم المحطة.

ثم انقر لمعرفة أرصاد وتوقعات الطقس.

لتغيير الخارطة: اضغط على الأزرار الخضراء مع رمز الصليب الأسود للتكبير. على الزر الأخضر مع شرطة للتصغير، أو على الأسهم الخضراء للخرائط المجاورة.


METAR-TAF: